Terminal Aerodrome Forecast
Issued by NWS Charleston, WV

Home | Current Version | Previous Version | Text Only | Print | Product List | Glossary On
Versions: 1 2 3 4 5 6 7 8 9 10 11 12 13 14 15 16 17 18 19
763
FTUS41 KRLX 082332
TAFHTS
TAF
KHTS 082332Z 0900/0924 25006KT 6SM -SHSN OVC035
      TEMPO 0900/0904 2SM -SHSN OVC020
     FM090400 27010G18KT 2SM -SHSN BR OVC015
     FM091000 26008KT 3SM -SHSN OVC025
     FM091800 26010G17KT 3SM -SHSN OVC030=

USA.gov is the U.S. government's official web portal to all federal, state and local government web resources and services.